Погода Исатайна неделю

Атырауская область, Казахстан

18 - 24 июля
  • 18июля
    Сегодня
    +20°
    +36°
    Ясно и безоблачно
    ВремяПогодаТемператураВлажностьДавлениеВетер, м/сВероятность осадков
    02:00Ясно и безоблачно+23°C56 %759 мм1.8 м/с2 %
    05:00Ясно и безоблачно+22°C60 %759 мм1.5 м/с2 %
    08:00Ясно и безоблачно+25°C55 %759 мм1.5 м/с2 %
    11:00Ясно и безоблачно+32°C28 %759 мм3.3 м/с2 %
    14:00Ясно и безоблачно+35°C18 %758 мм3.9 м/с2 %
    17:00Ясно и безоблачно+35°C15 %757 мм5.4 м/с2 %
    20:00Ясно и безоблачно+33°C16 %756 мм4.7 м/с2 %
    23:00Ясно и безоблачно+27°C26 %757 мм2.6 м/с2 %
  • 19июля
    Пятница
    +23°
    +37°
    Практически безоблачно
    ВремяПогодаТемператураВлажностьДавлениеВетер, м/сВероятность осадков
    02:00Ясно и безоблачно+25°C36 %756 мм1.7 м/с2 %
    05:00Ясно и безоблачно+22°C42 %756 мм1.3 м/с2 %
    08:00Ясно и безоблачно+25°C37 %756 мм1.3 м/с2 %
    11:00Ясно и безоблачно+34°C22 %755 мм3.0 м/с2 %
    14:00Практически безоблачно+36°C18 %754 мм4.5 м/с2 %
    17:00Небольшая облачность+36°C17 %752 мм6.0 м/с2 %
    20:00Облачно с прояснениями+33°C21 %752 мм4.0 м/с2 %
    23:00Ясно и безоблачно+28°C35 %752 мм3.6 м/с2 %
  • 20июля
    Суббота
    +22°
    +36°
    Облачно с прояснениями
    ВремяПогодаТемператураВлажностьДавлениеВетер, м/сВероятность осадков
    02:00Практически безоблачно+25°C46 %752 мм1.6 м/с2 %
    05:00Ясно и безоблачно+24°C44 %752 мм1.9 м/с2 %
    08:00Ясно и безоблачно+26°C44 %752 мм1.7 м/с2 %
    11:00Небольшая облачность+33°C30 %752 мм1.8 м/с2 %
    14:00Облачно с прояснениями+36°C24 %752 мм4.1 м/с12 %
    17:00Облачно с прояснениями+34°C33 %753 мм5.6 м/с33 %
    20:00Облачно с прояснениями+30°C34 %753 мм4.7 м/с8 %
    23:00Небольшая облачность+27°C49 %753 мм1.0 м/с2 %
  • 21июля
    Воскресенье
    +22°
    +34°
    Небольшая облачность
    ВремяПогодаТемператураВлажностьДавлениеВетер, м/сВероятность осадков
    02:00Ясно и безоблачно+25°C66 %753 мм1.2 м/с2 %
    05:00Облачно с прояснениями+23°C79 %753 мм1.7 м/с2 %
    08:00Облачно с прояснениями+25°C70 %754 мм1.8 м/с4 %
    11:00Облачно с прояснениями+29°C38 %754 мм3.8 м/с12 %
    14:00Небольшая облачность+32°C34 %754 мм4.3 м/с36 %
    17:00Облачно с прояснениями, небольшой дождь+33°C35 %754 мм4.0 м/с37 %
    20:00Облачно с прояснениями+31°C36 %754 мм3.4 м/с15 %
    23:00Практически безоблачно+27°C44 %755 мм1.4 м/с2 %
  • 22июля
    Понедельник
    +22°
    +37°
    Облачно с прояснениями
    ВремяПогодаТемператураВлажностьДавлениеВетер, м/сВероятность осадков
    02:00Ясно и безоблачно+24°C54 %754 мм1.6 м/с2 %
    05:00Ясно и безоблачно+23°C57 %754 мм1.2 м/с2 %
    08:00Ясно и безоблачно+25°C49 %755 мм1.1 м/с2 %
    11:00Ясно и безоблачно+34°C21 %755 мм1.5 м/с2 %
    14:00Облачно с прояснениями+35°C16 %754 мм4.5 м/с2 %
    17:00Небольшая облачность+37°C14 %754 мм4.6 м/с5 %
    20:00Ясно и безоблачно+33°C16 %753 мм2.9 м/с2 %
    23:00Ясно и безоблачно+29°C42 %754 мм3.6 м/с2 %
Мы используем cookies
Соглашаюсь